Portada
METAR-TAF:

METAR-TAF

Aeroports :

Nouakchott, Mauritània

latitud: 18-18-36N, longitud: 015-58-11W, altitud: 3 m

Observació

L'informe es va fer fa 39 minuts, a les 16:00 UTC
Vent 4 kt amb direcció variable
Temperatura 32°C
Humitat 9%
Pressió 1010 hPa
Visibilitat: 7000 m

METAR: GQNO 211600Z VRB04KT 7000 NSC 32/M05 Q1010 NOSIG

Hora: 16:39 (16:39 UTC)

Pronòstic

L'informe es va fer fa 5 hores i 39 minuts, a les 11:00 UTC
Pronòstic vàlid del 21 a les 12 UTC al 22 a les 18 UTC
Vent 10 kt del Est/Nord-Est
Visibilitat: 7000 m
Evolucionant progressivament
l' 21 a les 16 UTC al 21 a les 18 UTC
Vent 12 kt del Nord
Evolucionant progressivament
l' 22 a les 08 UTC al 22 a les 10 UTC
Vent 8 kt del Est/Nord-Est

TAF: GQNO 211100Z 2112/2218 060010KT 7000 NSC BECMG 2116/2118 35012KT BECMG 2208/2210 07008KT

Observacions i pronòstics meteorològics de més de 4000 aeroports (METAR i TAF).

Les estacions disponibles són els punts grocs i vermells al mapa.

Posi el ratolí al punt desitjat per veure el nom de l'estació.

Feu clic per veure les observacions i els pronòstics meteorològics.

Per canviar el mapa: feu clic els botons verds amb una creu de color negre per apropar; al botó verd amb un guió per allunyar la imatge; o en les fletxes verdes per a mapes adjacents.


METAR-TAF: